createdAt,value
2023-02-22T00:01:21.852Z,99.72
2023-02-22T00:03:49.752Z,99.86
2023-02-22T00:06:17.289Z,99.73
2023-02-22T00:08:43.636Z,99.98
2023-02-22T00:11:09.937Z,99.64
2023-02-22T00:13:37.325Z,99.66
2023-02-22T00:16:04.096Z,99.97
2023-02-22T00:18:30.392Z,100.00
2023-02-22T00:20:57.541Z,99.93
2023-02-22T00:23:23.857Z,99.99
2023-02-22T00:25:50.609Z,100.00
2023-02-22T00:28:17.900Z,100.00
2023-02-22T00:30:44.660Z,100.00
2023-02-22T00:33:12.604Z,100.00
2023-02-22T00:35:39.621Z,100.00
2023-02-22T00:38:06.983Z,100.00
2023-02-22T00:40:34.066Z,100.00
2023-02-22T00:43:01.960Z,100.00
2023-02-22T00:45:29.223Z,100.00
2023-02-22T00:47:55.761Z,100.00
2023-02-22T00:50:23.420Z,100.00
2023-02-22T00:52:50.842Z,100.00
2023-02-22T00:55:18.662Z,100.00
2023-02-22T00:57:45.202Z,100.00
2023-02-22T01:00:20.302Z,100.00
2023-02-22T01:02:46.758Z,100.00
2023-02-22T01:05:13.716Z,100.00
2023-02-22T01:07:40.313Z,100.00
2023-02-22T01:10:07.334Z,100.00
2023-02-22T01:12:34.980Z,100.00
2023-02-22T01:15:07.564Z,100.00
2023-02-22T01:17:33.808Z,100.00
2023-02-22T01:20:00.294Z,100.00
2023-02-22T01:22:27.258Z,100.00
2023-02-22T01:24:53.512Z,100.00
2023-02-22T01:27:20.332Z,100.00
2023-02-22T01:29:48.070Z,100.00
2023-02-22T01:32:14.702Z,100.00
2023-02-22T01:34:41.143Z,100.00
2023-02-22T01:37:10.464Z,100.00
2023-02-22T01:39:37.302Z,100.00
2023-02-22T01:42:03.600Z,100.00
2023-02-22T01:44:32.444Z,100.00
2023-02-22T01:46:59.427Z,100.00
2023-02-22T01:49:29.015Z,100.00
2023-02-22T01:51:57.327Z,100.00
2023-02-22T01:54:35.604Z,100.00
2023-02-22T01:57:02.273Z,100.00
2023-02-22T01:59:31.665Z,100.00
2023-02-22T02:01:58.716Z,100.00
2023-02-22T02:04:25.794Z,100.00
2023-02-22T02:06:57.284Z,100.00
2023-02-22T02:09:38.199Z,100.00
2023-02-22T02:12:07.069Z,100.00
2023-02-22T02:14:33.568Z,100.00
2023-02-22T02:17:00.333Z,100.00
2023-02-22T02:19:50.004Z,100.00
2023-02-22T02:22:19.385Z,100.00
2023-02-22T02:25:04.135Z,100.00
2023-02-22T02:27:41.022Z,100.00
2023-02-22T02:30:19.476Z,100.00
2023-02-22T02:33:15.234Z,100.00
2023-02-22T02:35:41.558Z,100.00
2023-02-22T02:38:22.046Z,100.00
2023-02-22T02:40:54.246Z,100.00
2023-02-22T02:43:28.215Z,100.00
2023-02-22T02:46:30.131Z,100.00
2023-02-22T02:49:09.851Z,100.00
2023-02-22T02:51:38.693Z,100.00
2023-02-22T02:54:05.644Z,100.00
2023-02-22T02:56:41.097Z,100.00
2023-02-22T02:59:42.765Z,100.00
2023-02-22T03:02:27.435Z,100.00
2023-02-22T03:05:12.953Z,100.00
2023-02-22T03:07:46.549Z,100.00
2023-02-22T03:10:25.970Z,100.00
2023-02-22T03:13:10.968Z,100.00
2023-02-22T03:15:37.463Z,100.00
2023-02-22T03:18:03.926Z,100.00
2023-02-22T03:20:42.822Z,100.00
2023-02-22T03:23:12.306Z,100.00
2023-02-22T03:25:46.321Z,100.00
2023-02-22T03:28:15.861Z,100.00
2023-02-22T03:30:51.343Z,100.00
2023-02-22T03:33:22.724Z,100.00
2023-02-22T03:35:54.209Z,100.00
2023-02-22T03:38:20.780Z,100.00
2023-02-22T03:40:49.917Z,100.00
2023-02-22T03:43:20.889Z,100.00
2023-02-22T03:45:48.733Z,100.00
2023-02-22T03:48:37.146Z,100.00
2023-02-22T03:51:05.084Z,100.00
2023-02-22T03:53:33.389Z,100.00
2023-02-22T03:56:01.922Z,100.00
2023-02-22T03:58:31.172Z,100.00
2023-02-22T04:00:57.572Z,100.00
2023-02-22T04:03:24.086Z,100.00
2023-02-22T04:05:50.860Z,100.00
2023-02-22T04:08:20.968Z,100.00
2023-02-22T04:10:47.820Z,100.00
2023-02-22T04:13:15.838Z,100.00
2023-02-22T04:15:45.908Z,100.00
2023-02-22T04:18:12.431Z,100.00
2023-02-22T04:20:38.989Z,100.00
2023-02-22T04:23:10.891Z,100.00
2023-02-22T04:25:39.284Z,100.00
2023-02-22T04:28:11.040Z,100.00
2023-02-22T04:30:45.278Z,100.00
2023-02-22T04:33:14.471Z,100.00
2023-02-22T04:35:40.799Z,100.00
2023-02-22T04:38:07.327Z,100.00
2023-02-22T04:40:36.854Z,100.00
2023-02-22T04:43:03.352Z,100.00
2023-02-22T04:45:30.262Z,100.00
2023-02-22T04:47:56.679Z,100.00
2023-02-22T04:50:23.192Z,100.00
2023-02-22T04:52:49.543Z,100.00
2023-02-22T04:55:16.215Z,100.00
2023-02-22T04:57:42.832Z,100.00
2023-02-22T05:00:09.449Z,100.00
2023-02-22T05:02:40.047Z,100.00
2023-02-22T05:05:08.948Z,100.00
2023-02-22T05:07:35.352Z,100.00
2023-02-22T05:10:01.800Z,100.00
2023-02-22T05:12:28.107Z,100.00
2023-02-22T05:14:54.580Z,100.00
2023-02-22T05:17:20.929Z,100.00
2023-02-22T05:19:47.367Z,100.00
2023-02-22T05:22:16.167Z,100.00
2023-02-22T05:24:42.536Z,100.00
2023-02-22T05:27:11.503Z,100.00
2023-02-22T05:29:37.800Z,100.00
2023-02-22T05:32:11.691Z,100.00
2023-02-22T05:34:41.241Z,100.00
2023-02-22T05:37:07.622Z,100.00
2023-02-22T05:39:34.151Z,100.00
2023-02-22T05:42:00.503Z,100.00
2023-02-22T05:44:29.912Z,100.00
2023-02-22T05:46:56.348Z,100.00
2023-02-22T05:49:30.360Z,100.00
2023-02-22T05:51:59.300Z,100.00
2023-02-22T05:54:25.692Z,100.00
2023-02-22T05:56:54.428Z,100.00
2023-02-22T05:59:20.787Z,100.00
2023-02-22T06:01:49.935Z,100.00
2023-02-22T06:04:16.387Z,100.00
2023-02-22T06:06:43.073Z,100.00
2023-02-22T06:09:09.587Z,100.00
2023-02-22T06:11:35.892Z,100.00
2023-02-22T06:14:02.419Z,100.00
2023-02-22T06:16:29.198Z,100.00
2023-02-22T06:18:55.903Z,100.00
2023-02-22T06:21:22.544Z,100.00
2023-02-22T06:23:48.879Z,100.00
2023-02-22T06:26:16.150Z,100.00
2023-02-22T06:28:47.732Z,100.00
2023-02-22T06:31:19.946Z,100.00
2023-02-22T06:33:46.391Z,100.00
2023-02-22T06:36:12.690Z,100.00
2023-02-22T06:38:39.092Z,100.00
2023-02-22T06:41:05.437Z,100.00
2023-02-22T06:43:31.725Z,100.00
2023-02-22T06:45:58.274Z,100.00
2023-02-22T06:48:25.003Z,100.00
2023-02-22T06:50:51.454Z,100.00
2023-02-22T06:53:17.739Z,100.00
2023-02-22T06:55:44.187Z,100.00
2023-02-22T06:58:10.514Z,100.00
2023-02-22T07:00:37.136Z,100.00
2023-02-22T07:03:04.249Z,100.00
2023-02-22T07:05:33.544Z,100.00
2023-02-22T07:08:04.374Z,100.00
2023-02-22T07:10:31.549Z,100.00
2023-02-22T07:12:58.380Z,100.00
2023-02-22T07:15:25.433Z,100.00
2023-02-22T07:17:52.070Z,100.00
2023-02-22T07:20:19.279Z,100.00
2023-02-22T07:22:45.919Z,100.00
2023-02-22T07:25:12.623Z,100.00
2023-02-22T07:27:39.594Z,100.00
2023-02-22T07:30:06.687Z,100.00
2023-02-22T07:32:33.218Z,99.75
2023-02-22T07:34:59.854Z,99.75
2023-02-22T07:37:31.616Z,99.68
2023-02-22T07:39:57.915Z,99.23
2023-02-22T07:42:24.510Z,98.54
2023-02-22T07:44:50.910Z,98.46
2023-02-22T07:47:17.404Z,97.95
2023-02-22T07:49:43.797Z,97.86
2023-02-22T07:52:10.174Z,97.72
2023-02-22T07:54:36.547Z,97.17
2023-02-22T07:57:03.237Z,96.22
2023-02-22T07:59:29.813Z,96.04
2023-02-22T08:01:56.207Z,95.71
2023-02-22T08:04:22.967Z,95.94
2023-02-22T08:06:49.484Z,95.49
2023-02-22T08:09:16.126Z,95.41
2023-02-22T08:11:42.824Z,95.35
2023-02-22T08:14:09.771Z,94.77
2023-02-22T08:16:36.156Z,94.45
2023-02-22T08:19:02.585Z,94.05
2023-02-22T08:21:28.972Z,93.65
2023-02-22T08:23:55.314Z,92.80
2023-02-22T08:26:21.806Z,92.10
2023-02-22T08:28:48.206Z,91.85
2023-02-22T08:31:14.883Z,91.46
2023-02-22T08:33:41.589Z,91.44
2023-02-22T08:36:08.278Z,90.42
2023-02-22T08:38:35.009Z,89.98
2023-02-22T08:41:01.732Z,89.88
2023-02-22T08:43:28.340Z,89.23
2023-02-22T08:45:57.275Z,88.66
2023-02-22T08:48:24.569Z,88.42
2023-02-22T08:50:51.064Z,87.75
2023-02-22T08:53:19.955Z,87.69
2023-02-22T08:55:48.606Z,87.66
2023-02-22T08:58:17.348Z,87.84
2023-02-22T09:00:44.199Z,87.33
2023-02-22T09:03:12.571Z,86.75
2023-02-22T09:05:39.460Z,86.68
2023-02-22T09:08:08.968Z,85.99
2023-02-22T09:10:35.515Z,85.80
2023-02-22T09:13:04.456Z,85.35
2023-02-22T09:15:31.830Z,84.91
2023-02-22T09:17:58.719Z,85.33
2023-02-22T09:20:34.530Z,85.42
2023-02-22T09:23:02.935Z,85.20
2023-02-22T09:25:49.370Z,84.96
2023-02-22T09:28:15.961Z,84.93
2023-02-22T09:30:47.911Z,84.58
2023-02-22T09:33:22.440Z,84.19
2023-02-22T09:35:49.522Z,83.24
2023-02-22T09:38:18.747Z,82.89
2023-02-22T09:40:47.194Z,82.14
2023-02-22T09:43:26.212Z,82.33
2023-02-22T09:46:04.446Z,82.32
2023-02-22T09:48:55.771Z,81.85
2023-02-22T09:51:24.577Z,81.46
2023-02-22T09:54:10.849Z,81.02
2023-02-22T09:56:38.090Z,81.13
2023-02-22T09:59:10.919Z,80.25
2023-02-22T10:01:44.234Z,80.07
2023-02-22T10:04:21.453Z,79.36
2023-02-22T10:06:56.825Z,79.29
2023-02-22T10:09:26.381Z,79.05
2023-02-22T10:12:02.882Z,78.95
2023-02-22T10:14:35.778Z,79.22
2023-02-22T10:17:21.705Z,80.02
2023-02-22T10:19:57.804Z,80.23
2023-02-22T10:22:30.475Z,79.25
2023-02-22T10:25:05.143Z,78.77
2023-02-22T10:27:32.940Z,78.97
2023-02-22T10:30:25.012Z,78.46
2023-02-22T10:32:55.443Z,78.62
2023-02-22T10:35:23.298Z,78.77
2023-02-22T10:37:54.363Z,78.00
2023-02-22T10:40:22.205Z,76.58
2023-02-22T10:42:51.295Z,76.82
2023-02-22T10:45:29.023Z,76.62
2023-02-22T10:47:56.688Z,77.28
2023-02-22T10:50:23.091Z,77.35
2023-02-22T10:52:49.712Z,77.41
2023-02-22T10:55:16.251Z,77.99
2023-02-22T10:57:46.884Z,77.33
2023-02-22T11:00:18.995Z,76.47
2023-02-22T11:02:57.558Z,76.31
2023-02-22T11:05:37.509Z,75.74
2023-02-22T11:08:24.354Z,75.49
2023-02-22T11:10:55.414Z,75.66
2023-02-22T11:13:27.447Z,76.34
2023-02-22T11:15:55.038Z,74.62
2023-02-22T11:18:23.586Z,74.08
2023-02-22T11:20:58.101Z,73.78
2023-02-22T11:23:24.755Z,73.08
2023-02-22T11:26:00.022Z,73.21
2023-02-22T11:28:28.497Z,73.47
2023-02-22T11:30:56.027Z,72.51
2023-02-22T11:33:24.536Z,72.12
2023-02-22T11:35:55.086Z,72.91
2023-02-22T11:38:25.808Z,71.97
2023-02-22T11:41:12.008Z,72.94
2023-02-22T11:43:38.463Z,73.00
2023-02-22T11:46:12.979Z,72.15
2023-02-22T11:48:41.521Z,72.40
2023-02-22T11:51:17.104Z,72.27
2023-02-22T11:53:52.246Z,71.56
2023-02-22T11:56:37.007Z,72.23
2023-02-22T11:59:18.034Z,72.37
2023-02-22T12:01:47.594Z,72.48
2023-02-22T12:04:14.459Z,72.72
2023-02-22T12:06:50.511Z,72.09
2023-02-22T12:09:38.392Z,71.92
2023-02-22T12:12:23.490Z,72.02
2023-02-22T12:15:11.003Z,71.13
2023-02-22T12:18:00.457Z,70.91
2023-02-22T12:20:59.643Z,70.68
2023-02-22T12:23:47.367Z,70.29
2023-02-22T12:26:17.516Z,70.33
2023-02-22T12:28:51.177Z,70.54
2023-02-22T12:31:20.783Z,69.29
2023-02-22T12:33:51.079Z,69.11
2023-02-22T12:36:22.697Z,70.10
2023-02-22T12:38:56.512Z,69.97
2023-02-22T12:41:49.657Z,70.23
2023-02-22T12:44:21.290Z,69.37
2023-02-22T12:46:55.287Z,69.12
2023-02-22T12:49:27.676Z,69.26
2023-02-22T12:52:20.983Z,68.19
2023-02-22T12:54:52.449Z,68.28
2023-02-22T12:57:19.102Z,67.93
2023-02-22T12:59:51.176Z,68.25
2023-02-22T13:02:20.696Z,67.03
2023-02-22T13:04:48.300Z,67.25
2023-02-22T13:07:20.166Z,67.84
2023-02-22T13:09:58.977Z,68.19
2023-02-22T13:12:37.854Z,67.19
2023-02-22T13:15:13.784Z,66.96
2023-02-22T13:17:46.682Z,67.36
2023-02-22T13:20:25.585Z,67.09
2023-02-22T13:22:55.026Z,67.21
2023-02-22T13:25:21.694Z,66.92
2023-02-22T13:27:51.555Z,67.06
2023-02-22T13:30:25.568Z,67.33
2023-02-22T13:33:09.058Z,67.39
2023-02-22T13:36:09.636Z,67.34
2023-02-22T13:39:04.800Z,67.11
2023-02-22T13:41:47.014Z,66.79
2023-02-22T13:44:32.225Z,66.70
2023-02-22T13:47:01.502Z,67.42
2023-02-22T13:50:08.408Z,66.94
2023-02-22T13:52:38.645Z,67.52
2023-02-22T13:55:08.022Z,67.86
2023-02-22T13:57:45.596Z,68.25
2023-02-22T14:00:17.435Z,68.50
2023-02-22T14:03:02.471Z,68.07
2023-02-22T14:05:41.575Z,67.59
2023-02-22T14:08:17.687Z,66.71
2023-02-22T14:10:46.702Z,67.12
2023-02-22T14:13:16.417Z,67.16
2023-02-22T14:15:58.614Z,67.59
2023-02-22T14:18:26.144Z,67.69
2023-02-22T14:21:09.814Z,67.86
2023-02-22T14:23:37.619Z,67.99
2023-02-22T14:26:10.170Z,68.56
2023-02-22T14:28:48.319Z,68.76
2023-02-22T14:31:33.297Z,68.94
2023-02-22T14:34:15.307Z,69.26
2023-02-22T14:37:06.569Z,69.58
2023-02-22T14:39:41.887Z,69.80
2023-02-22T14:42:21.244Z,70.08
2023-02-22T14:44:47.940Z,70.18
2023-02-22T14:47:17.181Z,70.02
2023-02-22T14:49:46.309Z,69.97
2023-02-22T14:52:27.393Z,70.39
2023-02-22T14:55:04.038Z,70.38
2023-02-22T14:57:54.372Z,70.08
2023-02-22T15:00:43.550Z,70.07
2023-02-22T15:03:39.151Z,70.00
2023-02-22T15:06:14.599Z,70.60
2023-02-22T15:08:41.817Z,70.80
2023-02-22T15:11:25.558Z,70.64
2023-02-22T15:13:53.098Z,70.49
2023-02-22T15:16:21.982Z,70.48
2023-02-22T15:18:53.163Z,70.84
2023-02-22T15:21:22.644Z,70.47
2023-02-22T15:23:55.031Z,70.91
2023-02-22T15:26:26.194Z,70.82
2023-02-22T15:28:53.940Z,71.18
2023-02-22T15:31:23.484Z,71.29
2023-02-22T15:33:51.417Z,71.45
2023-02-22T15:36:18.780Z,71.37
2023-02-22T15:38:49.466Z,71.34
2023-02-22T15:41:21.423Z,71.62
2023-02-22T15:44:22.668Z,71.80
2023-02-22T15:46:50.637Z,71.66
2023-02-22T15:49:19.069Z,71.49
2023-02-22T15:51:46.390Z,71.43
2023-02-22T15:54:25.069Z,71.35
2023-02-22T15:56:54.001Z,71.49
2023-02-22T15:59:21.237Z,72.00
2023-02-22T16:01:49.910Z,72.43
2023-02-22T16:04:24.573Z,72.81
2023-02-22T16:06:53.109Z,72.71
2023-02-22T16:09:21.351Z,72.96
2023-02-22T16:11:48.272Z,73.32
2023-02-22T16:14:28.253Z,73.46
2023-02-22T16:17:23.855Z,73.55
2023-02-22T16:19:51.436Z,73.59
2023-02-22T16:22:28.713Z,73.63
2023-02-22T16:25:10.740Z,73.97
2023-02-22T16:27:41.489Z,74.22
2023-02-22T16:30:24.676Z,74.42
2023-02-22T16:32:53.667Z,74.55
2023-02-22T16:35:23.643Z,74.87
2023-02-22T16:37:51.663Z,74.93
2023-02-22T16:40:26.375Z,74.86
2023-02-22T16:42:52.931Z,75.28
2023-02-22T16:45:20.819Z,75.40
2023-02-22T16:47:47.500Z,75.49
2023-02-22T16:50:14.061Z,75.76
2023-02-22T16:52:40.966Z,75.77
2023-02-22T16:55:13.172Z,75.89
2023-02-22T16:57:40.727Z,76.06
2023-02-22T17:00:28.376Z,76.19
2023-02-22T17:02:55.063Z,76.33
2023-02-22T17:05:21.592Z,76.69
2023-02-22T17:07:48.470Z,77.16
2023-02-22T17:10:16.271Z,77.30
2023-02-22T17:12:46.944Z,77.54
2023-02-22T17:15:22.879Z,77.37
2023-02-22T17:17:51.246Z,77.66
2023-02-22T17:20:18.348Z,77.75
2023-02-22T17:22:47.889Z,78.19
2023-02-22T17:25:22.459Z,78.29
2023-02-22T17:27:49.056Z,78.42
2023-02-22T17:30:16.343Z,78.48
2023-02-22T17:32:45.676Z,78.93
2023-02-22T17:35:15.342Z,79.10
2023-02-22T17:37:52.159Z,79.64
2023-02-22T17:40:20.161Z,79.65
2023-02-22T17:42:50.855Z,79.63
2023-02-22T17:45:21.618Z,79.78
2023-02-22T17:47:51.561Z,79.94
2023-02-22T17:50:19.072Z,79.99
2023-02-22T17:52:46.194Z,80.23
2023-02-22T17:55:12.960Z,80.63
2023-02-22T17:57:39.892Z,81.06
2023-02-22T18:00:07.215Z,81.13
2023-02-22T18:02:42.430Z,81.02
2023-02-22T18:05:14.524Z,81.26
2023-02-22T18:07:41.668Z,81.19
2023-02-22T18:10:09.358Z,81.21
2023-02-22T18:12:36.050Z,81.21
2023-02-22T18:15:02.749Z,81.42
2023-02-22T18:17:29.555Z,81.81
2023-02-22T18:19:56.173Z,81.99
2023-02-22T18:22:42.802Z,81.96
2023-02-22T18:25:13.162Z,81.88
2023-02-22T18:27:42.992Z,82.20
2023-02-22T18:30:09.979Z,82.51
2023-02-22T18:32:39.325Z,82.57
2023-02-22T18:35:06.689Z,82.51
2023-02-22T18:37:34.157Z,82.72
2023-02-22T18:40:00.780Z,82.84
2023-02-22T18:42:27.899Z,83.07
2023-02-22T18:44:54.874Z,83.08
2023-02-22T18:47:21.817Z,83.19
2023-02-22T18:49:48.592Z,83.42
2023-02-22T18:52:15.416Z,84.02
2023-02-22T18:54:42.359Z,84.12
2023-02-22T18:57:10.421Z,84.39
2023-02-22T18:59:39.768Z,84.51
2023-02-22T19:02:12.903Z,84.75
2023-02-22T19:04:41.672Z,84.91
2023-02-22T19:07:10.948Z,84.84
2023-02-22T19:09:37.828Z,85.11
2023-02-22T19:12:05.172Z,85.03
2023-02-22T19:14:34.078Z,84.96
2023-02-22T19:17:03.778Z,85.08
2023-02-22T19:19:36.735Z,85.34
2023-02-22T19:22:04.578Z,85.30
2023-02-22T19:24:33.435Z,85.65
2023-02-22T19:27:05.322Z,85.76
2023-02-22T19:29:41.092Z,85.73
2023-02-22T19:32:11.248Z,85.71
2023-02-22T19:34:37.905Z,85.63
2023-02-22T19:37:04.873Z,85.90
2023-02-22T19:39:32.964Z,85.93
2023-02-22T19:42:12.602Z,85.50
2023-02-22T19:44:43.798Z,85.44
2023-02-22T19:47:11.479Z,85.89
2023-02-22T19:49:38.007Z,86.19
2023-02-22T19:52:04.575Z,86.45
2023-02-22T19:54:31.604Z,86.58
2023-02-22T19:56:59.379Z,86.61
2023-02-22T19:59:26.199Z,86.82
2023-02-22T20:01:53.536Z,87.05
2023-02-22T20:04:20.287Z,87.16
2023-02-22T20:06:48.100Z,87.21
2023-02-22T20:09:16.859Z,87.32
2023-02-22T20:11:44.205Z,87.28
2023-02-22T20:14:21.432Z,87.09
2023-02-22T20:16:48.347Z,87.20
2023-02-22T20:19:15.082Z,87.17
2023-02-22T20:21:42.005Z,87.35
2023-02-22T20:24:10.441Z,87.59
2023-02-22T20:26:38.273Z,87.45
2023-02-22T20:29:06.005Z,87.74
2023-02-22T20:31:33.538Z,87.82
2023-02-22T20:34:02.824Z,87.73
2023-02-22T20:36:29.624Z,87.98
2023-02-22T20:38:58.048Z,87.98
2023-02-22T20:41:28.965Z,87.96
2023-02-22T20:43:55.994Z,88.31
2023-02-22T20:46:23.452Z,88.17
2023-02-22T20:48:53.453Z,88.36
2023-02-22T20:51:20.086Z,88.50
2023-02-22T20:53:47.185Z,88.79
2023-02-22T20:56:15.201Z,89.02
2023-02-22T20:58:41.832Z,88.66
2023-02-22T21:01:09.504Z,88.63
2023-02-22T21:03:35.892Z,88.66
2023-02-22T21:06:03.509Z,88.59
2023-02-22T21:08:30.566Z,88.64
2023-02-22T21:10:57.057Z,88.96
2023-02-22T21:13:23.491Z,88.93
2023-02-22T21:15:50.157Z,89.06
2023-02-22T21:18:16.663Z,89.13
2023-02-22T21:20:43.108Z,89.25
2023-02-22T21:23:10.019Z,89.36
2023-02-22T21:25:37.350Z,89.43
2023-02-22T21:28:04.324Z,89.61
2023-02-22T21:30:32.241Z,89.51
2023-02-22T21:32:58.983Z,89.34
2023-02-22T21:35:25.504Z,89.19
2023-02-22T21:37:55.137Z,89.43
2023-02-22T21:40:24.438Z,89.57
2023-02-22T21:42:50.844Z,89.60
2023-02-22T21:45:18.673Z,89.74
2023-02-22T21:47:45.626Z,90.04
2023-02-22T21:50:12.717Z,90.05
2023-02-22T21:52:39.175Z,90.20
2023-02-22T21:55:06.017Z,90.12
2023-02-22T21:57:32.654Z,90.21
2023-02-22T22:00:03.693Z,90.24
2023-02-22T22:02:39.084Z,90.56
2023-02-22T22:05:11.377Z,90.66
2023-02-22T22:07:37.990Z,90.65
2023-02-22T22:10:05.469Z,90.92
2023-02-22T22:12:44.360Z,90.92
2023-02-22T22:15:13.473Z,91.09
2023-02-22T22:17:39.790Z,91.68
2023-02-22T22:20:07.235Z,91.72
2023-02-22T22:22:33.647Z,91.77
2023-02-22T22:25:00.197Z,91.90
2023-02-22T22:27:26.607Z,92.28
2023-02-22T22:29:53.038Z,92.31
2023-02-22T22:32:19.487Z,92.43
2023-02-22T22:34:45.955Z,92.36
2023-02-22T22:37:12.661Z,92.39
2023-02-22T22:39:39.088Z,92.65
2023-02-22T22:42:05.568Z,92.80
2023-02-22T22:44:35.247Z,92.77
2023-02-22T22:47:01.595Z,92.87
2023-02-22T22:49:27.990Z,92.87
2023-02-22T22:51:54.367Z,93.13
2023-02-22T22:54:20.801Z,93.27
2023-02-22T22:56:47.220Z,93.25
2023-02-22T22:59:13.659Z,93.32
2023-02-22T23:01:41.477Z,93.46
2023-02-22T23:04:09.880Z,93.41
2023-02-22T23:06:37.885Z,93.41
2023-02-22T23:09:04.316Z,93.43
2023-02-22T23:11:30.781Z,93.52
2023-02-22T23:13:57.151Z,93.52
2023-02-22T23:16:25.766Z,93.62
2023-02-22T23:18:52.436Z,93.74
2023-02-22T23:21:19.142Z,93.76
2023-02-22T23:23:45.694Z,93.80
2023-02-22T23:26:12.590Z,93.72
2023-02-22T23:28:39.475Z,93.85
2023-02-22T23:31:08.751Z,93.59
2023-02-22T23:33:35.247Z,93.58
2023-02-22T23:36:01.598Z,93.66
2023-02-22T23:38:27.954Z,93.91
2023-02-22T23:40:54.431Z,93.82
2023-02-22T23:43:21.322Z,93.77
2023-02-22T23:45:47.905Z,93.68
2023-02-22T23:48:14.557Z,93.46
2023-02-22T23:50:43.697Z,93.50
2023-02-22T23:53:10.429Z,93.65
2023-02-22T23:55:37.422Z,93.67
2023-02-22T23:58:03.871Z,93.58
